createdAt,value
2019-03-15T00:01:36.000Z,996.29
2019-03-15T00:11:36.000Z,996.451
2019-03-15T00:21:36.000Z,996.465
2019-03-15T00:31:36.000Z,996.554
2019-03-15T00:41:36.000Z,996.6
2019-03-15T00:51:36.000Z,996.666
2019-03-15T01:01:36.000Z,996.773
2019-03-15T01:11:36.000Z,996.659
2019-03-15T01:21:36.000Z,996.736
2019-03-15T01:31:36.000Z,996.684
2019-03-15T01:41:36.000Z,996.65
2019-03-15T01:51:36.000Z,996.659
2019-03-15T02:01:36.000Z,996.629
2019-03-15T02:11:36.000Z,996.553
2019-03-15T02:21:36.000Z,996.465
2019-03-15T02:31:36.000Z,996.459
2019-03-15T02:41:36.000Z,996.51
2019-03-15T02:51:36.000Z,996.563
2019-03-15T03:01:36.000Z,996.547
2019-03-15T03:11:36.000Z,996.48
2019-03-15T03:21:36.000Z,996.55
2019-03-15T03:31:37.000Z,996.427
2019-03-15T03:41:36.000Z,996.364
2019-03-15T03:51:36.000Z,996.357
2019-03-15T04:01:36.000Z,996.375
2019-03-15T04:11:37.000Z,996.172
2019-03-15T04:21:37.000Z,996.128
2019-03-15T04:31:37.000Z,996.271
2019-03-15T04:41:37.000Z,996.213
2019-03-15T04:51:37.000Z,996.098
2019-03-15T05:01:37.000Z,995.997
2019-03-15T05:11:37.000Z,995.897
2019-03-15T05:21:37.000Z,995.797
2019-03-15T05:31:37.000Z,995.75
2019-03-15T05:41:37.000Z,995.696
2019-03-15T05:51:37.000Z,995.553
2019-03-15T06:01:37.000Z,995.591
2019-03-15T06:11:37.000Z,995.535
2019-03-15T06:21:37.000Z,995.368
2019-03-15T06:31:37.000Z,995.255
2019-03-15T06:41:37.000Z,995.157
2019-03-15T06:51:37.000Z,994.975
2019-03-15T07:01:37.000Z,994.985
2019-03-15T07:11:37.000Z,994.761
2019-03-15T07:21:37.000Z,994.725
2019-03-15T07:31:37.000Z,994.713
2019-03-15T07:41:37.000Z,994.594
2019-03-15T07:51:37.000Z,994.46
2019-03-15T08:01:37.000Z,994.365
2019-03-15T08:11:37.000Z,994.385
2019-03-15T08:21:37.000Z,994.241
2019-03-15T08:31:37.000Z,993.946
2019-03-15T08:41:37.000Z,993.897
2019-03-15T08:51:37.000Z,994.008
2019-03-15T09:01:37.000Z,993.856
2019-03-15T09:11:37.000Z,993.639
2019-03-15T09:21:37.000Z,993.657
2019-03-15T09:31:37.000Z,993.332
2019-03-15T09:41:37.000Z,993.022
2019-03-15T09:51:37.000Z,992.9
2019-03-15T10:01:37.000Z,992.985
2019-03-15T10:11:37.000Z,992.958
2019-03-15T10:21:37.000Z,992.952
2019-03-15T10:31:37.000Z,992.766
2019-03-15T10:41:37.000Z,992.817
2019-03-15T10:51:37.000Z,992.833
2019-03-15T11:01:37.000Z,992.794
2019-03-15T11:11:37.000Z,992.874
2019-03-15T11:21:37.000Z,992.905
2019-03-15T11:31:37.000Z,992.931
2019-03-15T11:41:37.000Z,993.003
2019-03-15T11:51:37.000Z,992.873
2019-03-15T12:01:39.000Z,992.734
2019-03-15T12:11:37.000Z,992.697
2019-03-15T12:21:37.000Z,992.664
2019-03-15T12:31:37.000Z,992.893
2019-03-15T12:51:38.000Z,992.749
2019-03-15T13:01:38.000Z,992.655
2019-03-15T13:11:38.000Z,992.514
2019-03-15T13:21:38.000Z,992.444
2019-03-15T13:31:39.000Z,992.401
2019-03-15T13:41:38.000Z,992.463
2019-03-15T13:51:38.000Z,992.183
2019-03-15T14:01:38.000Z,992.219
2019-03-15T14:11:38.000Z,992.411
2019-03-15T14:31:38.000Z,993.305
2019-03-15T14:41:38.000Z,993.263
2019-03-15T14:51:38.000Z,993.529
2019-03-15T15:01:38.000Z,993.737
2019-03-15T15:11:38.000Z,993.693
2019-03-15T15:21:38.000Z,993.652
2019-03-15T15:31:38.000Z,993.463
2019-03-15T15:41:38.000Z,993.873
2019-03-15T15:51:38.000Z,993.763
2019-03-15T16:01:38.000Z,993.661
2019-03-15T16:11:38.000Z,993.492
2019-03-15T16:21:38.000Z,993.587
2019-03-15T16:31:38.000Z,993.619
2019-03-15T16:41:38.000Z,993.801
2019-03-15T16:51:38.000Z,993.973
2019-03-15T17:01:38.000Z,994.179
2019-03-15T17:11:38.000Z,994.352
2019-03-15T17:21:38.000Z,994.643
2019-03-15T17:31:38.000Z,994.775
2019-03-15T17:41:38.000Z,995.186
2019-03-15T17:51:38.000Z,995.387
2019-03-15T18:01:41.000Z,995.565
2019-03-15T18:11:40.000Z,995.674
2019-03-15T18:21:38.000Z,995.837
2019-03-15T18:31:38.000Z,996.046
2019-03-15T18:41:38.000Z,996.112
2019-03-15T18:51:38.000Z,996.234
2019-03-15T19:01:38.000Z,996.615
2019-03-15T19:11:38.000Z,996.698
2019-03-15T19:21:38.000Z,996.84
2019-03-15T19:31:38.000Z,996.933
2019-03-15T19:41:38.000Z,997.199
2019-03-15T19:51:38.000Z,997.394
2019-03-15T20:11:38.000Z,997.678
2019-03-15T20:21:38.000Z,997.889
2019-03-15T20:31:41.000Z,997.956
2019-03-15T20:41:38.000Z,998.124
2019-03-15T20:51:39.000Z,998.194
2019-03-15T21:01:39.000Z,998.437
2019-03-15T21:11:39.000Z,998.444
2019-03-15T21:21:39.000Z,998.405
2019-03-15T21:31:39.000Z,998.442
2019-03-15T21:41:39.000Z,998.54
2019-03-15T21:51:39.000Z,998.689
2019-03-15T22:01:39.000Z,998.845
2019-03-15T22:11:39.000Z,998.8
2019-03-15T22:21:39.000Z,998.841
2019-03-15T22:31:39.000Z,998.982
2019-03-15T22:41:39.000Z,999.131
2019-03-15T22:51:39.000Z,999.335
2019-03-15T23:01:39.000Z,999.459
2019-03-15T23:11:39.000Z,999.744
2019-03-15T23:21:39.000Z,999.672
2019-03-15T23:31:39.000Z,999.735
2019-03-15T23:41:39.000Z,999.901
2019-03-15T23:51:39.000Z,999.896
